sensor_id;sensor_type;location;lat;lon;timestamp;P1;durP1;ratioP1;P2;durP2;ratioP2
18072;SDS011;9161;47.348;9.648;2023-04-09T00:02:22;40.40;;;20.43;;
18072;SDS011;9161;47.348;9.648;2023-04-09T00:07:27;42.67;;;21.23;;
18072;SDS011;9161;47.348;9.648;2023-04-09T00:12:29;37.33;;;20.43;;
18072;SDS011;9161;47.348;9.648;2023-04-09T00:17:31;41.63;;;20.70;;
18072;SDS011;9161;47.348;9.648;2023-04-09T00:22:35;37.10;;;19.87;;
18072;SDS011;9161;47.348;9.648;2023-04-09T00:27:37;41.83;;;21.87;;
18072;SDS011;9161;47.348;9.648;2023-04-09T00:32:40;42.33;;;20.57;;
18072;SDS011;9161;47.348;9.648;2023-04-09T00:37:44;41.37;;;21.03;;
18072;SDS011;9161;47.348;9.648;2023-04-09T00:42:46;43.63;;;22.50;;
18072;SDS011;9161;47.348;9.648;2023-04-09T00:47:48;47.27;;;24.03;;
18072;SDS011;9161;47.348;9.648;2023-04-09T00:52:52;57.10;;;25.40;;
18072;SDS011;9161;47.348;9.648;2023-04-09T00:57:54;53.83;;;25.53;;
18072;SDS011;9161;47.348;9.648;2023-04-09T01:02:57;50.90;;;25.07;;
18072;SDS011;9161;47.348;9.648;2023-04-09T01:08:02;46.13;;;24.03;;
18072;SDS011;9161;47.348;9.648;2023-04-09T01:13:10;43.40;;;23.00;;
18072;SDS011;9161;47.348;9.648;2023-04-09T01:18:18;41.33;;;21.83;;
18072;SDS011;9161;47.348;9.648;2023-04-09T01:23:31;37.93;;;20.80;;
18072;SDS011;9161;47.348;9.648;2023-04-09T01:28:45;43.17;;;21.47;;
18072;SDS011;9161;47.348;9.648;2023-04-09T01:33:51;38.53;;;20.57;;
18072;SDS011;9161;47.348;9.648;2023-04-09T01:38:54;39.03;;;20.33;;
18072;SDS011;9161;47.348;9.648;2023-04-09T01:43:59;32.23;;;17.10;;
18072;SDS011;9161;47.348;9.648;2023-04-09T01:49:03;28.67;;;15.97;;
18072;SDS011;9161;47.348;9.648;2023-04-09T01:54:06;44.33;;;20.13;;
18072;SDS011;9161;47.348;9.648;2023-04-09T01:59:10;42.07;;;22.10;;
18072;SDS011;9161;47.348;9.648;2023-04-09T02:04:15;39.80;;;19.80;;
18072;SDS011;9161;47.348;9.648;2023-04-09T02:09:21;32.07;;;17.27;;
18072;SDS011;9161;47.348;9.648;2023-04-09T02:14:27;34.23;;;17.47;;
18072;SDS011;9161;47.348;9.648;2023-04-09T02:19:38;34.73;;;17.93;;
18072;SDS011;9161;47.348;9.648;2023-04-09T02:24:41;35.67;;;18.40;;
18072;SDS011;9161;47.348;9.648;2023-04-09T02:29:45;40.83;;;20.60;;
18072;SDS011;9161;47.348;9.648;2023-04-09T02:34:47;38.23;;;20.40;;
18072;SDS011;9161;47.348;9.648;2023-04-09T02:39:49;46.10;;;23.00;;
18072;SDS011;9161;47.348;9.648;2023-04-09T02:44:53;58.97;;;27.43;;
18072;SDS011;9161;47.348;9.648;2023-04-09T02:49:55;59.60;;;26.67;;
18072;SDS011;9161;47.348;9.648;2023-04-09T02:54:57;44.07;;;23.17;;
18072;SDS011;9161;47.348;9.648;2023-04-09T03:00:00;47.10;;;22.87;;
18072;SDS011;9161;47.348;9.648;2023-04-09T03:05:03;54.13;;;25.77;;
18072;SDS011;9161;47.348;9.648;2023-04-09T03:10:06;46.90;;;24.13;;
18072;SDS011;9161;47.348;9.648;2023-04-09T03:15:10;47.73;;;24.93;;
18072;SDS011;9161;47.348;9.648;2023-04-09T03:20:12;39.53;;;21.40;;
18072;SDS011;9161;47.348;9.648;2023-04-09T03:25:14;40.50;;;21.60;;
18072;SDS011;9161;47.348;9.648;2023-04-09T03:30:20;40.10;;;21.63;;
18072;SDS011;9161;47.348;9.648;2023-04-09T03:35:22;39.17;;;20.73;;
18072;SDS011;9161;47.348;9.648;2023-04-09T03:40:24;43.23;;;21.83;;
18072;SDS011;9161;47.348;9.648;2023-04-09T03:45:29;45.40;;;22.63;;
18072;SDS011;9161;47.348;9.648;2023-04-09T03:50:36;41.37;;;21.00;;
18072;SDS011;9161;47.348;9.648;2023-04-09T03:55:39;37.43;;;19.70;;
18072;SDS011;9161;47.348;9.648;2023-04-09T04:00:42;36.67;;;19.77;;
18072;SDS011;9161;47.348;9.648;2023-04-09T04:05:45;33.67;;;17.47;;
18072;SDS011;9161;47.348;9.648;2023-04-09T04:10:47;33.17;;;18.50;;
18072;SDS011;9161;47.348;9.648;2023-04-09T04:15:51;36.17;;;18.13;;
18072;SDS011;9161;47.348;9.648;2023-04-09T04:20:53;37.00;;;20.03;;
18072;SDS011;9161;47.348;9.648;2023-04-09T04:25:55;38.37;;;19.33;;
18072;SDS011;9161;47.348;9.648;2023-04-09T04:30:59;40.30;;;20.83;;
18072;SDS011;9161;47.348;9.648;2023-04-09T04:36:04;39.60;;;19.93;;
18072;SDS011;9161;47.348;9.648;2023-04-09T04:41:07;35.83;;;19.07;;
18072;SDS011;9161;47.348;9.648;2023-04-09T04:46:11;34.20;;;18.37;;
18072;SDS011;9161;47.348;9.648;2023-04-09T04:51:13;34.83;;;18.73;;
18072;SDS011;9161;47.348;9.648;2023-04-09T04:56:15;35.30;;;18.83;;
18072;SDS011;9161;47.348;9.648;2023-04-09T05:01:19;38.90;;;20.20;;
18072;SDS011;9161;47.348;9.648;2023-04-09T05:06:21;37.30;;;19.90;;
18072;SDS011;9161;47.348;9.648;2023-04-09T05:11:23;44.90;;;21.70;;
18072;SDS011;9161;47.348;9.648;2023-04-09T05:16:26;45.00;;;22.50;;
18072;SDS011;9161;47.348;9.648;2023-04-09T05:21:29;39.90;;;20.13;;
18072;SDS011;9161;47.348;9.648;2023-04-09T05:26:31;39.50;;;20.40;;
18072;SDS011;9161;47.348;9.648;2023-04-09T05:31:34;34.57;;;18.27;;
18072;SDS011;9161;47.348;9.648;2023-04-09T05:36:36;33.60;;;18.17;;
18072;SDS011;9161;47.348;9.648;2023-04-09T05:41:38;32.03;;;17.17;;
18072;SDS011;9161;47.348;9.648;2023-04-09T05:46:43;32.23;;;17.43;;
18072;SDS011;9161;47.348;9.648;2023-04-09T05:51:45;31.00;;;16.37;;
18072;SDS011;9161;47.348;9.648;2023-04-09T05:56:48;29.23;;;16.53;;
18072;SDS011;9161;47.348;9.648;2023-04-09T06:01:53;28.67;;;15.93;;
18072;SDS011;9161;47.348;9.648;2023-04-09T06:06:55;26.83;;;14.63;;
18072;SDS011;9161;47.348;9.648;2023-04-09T06:11:59;25.97;;;15.33;;
18072;SDS011;9161;47.348;9.648;2023-04-09T06:17:03;29.43;;;15.97;;
18072;SDS011;9161;47.348;9.648;2023-04-09T06:22:07;27.87;;;15.40;;
18072;SDS011;9161;47.348;9.648;2023-04-09T06:27:10;27.53;;;15.10;;
18072;SDS011;9161;47.348;9.648;2023-04-09T06:32:15;27.23;;;15.80;;
18072;SDS011;9161;47.348;9.648;2023-04-09T06:37:17;25.80;;;14.83;;
18072;SDS011;9161;47.348;9.648;2023-04-09T06:42:19;26.90;;;15.40;;
18072;SDS011;9161;47.348;9.648;2023-04-09T06:47:22;22.60;;;13.23;;
18072;SDS011;9161;47.348;9.648;2023-04-09T06:52:25;18.83;;;11.67;;
18072;SDS011;9161;47.348;9.648;2023-04-09T06:57:28;20.83;;;12.03;;
18072;SDS011;9161;47.348;9.648;2023-04-09T07:02:31;19.13;;;11.30;;
18072;SDS011;9161;47.348;9.648;2023-04-09T07:07:34;17.47;;;10.77;;
18072;SDS011;9161;47.348;9.648;2023-04-09T07:12:36;19.50;;;11.00;;
18072;SDS011;9161;47.348;9.648;2023-04-09T07:17:40;19.13;;;10.87;;
18072;SDS011;9161;47.348;9.648;2023-04-09T07:22:43;20.63;;;11.80;;
18072;SDS011;9161;47.348;9.648;2023-04-09T07:27:45;17.03;;;10.23;;
18072;SDS011;9161;47.348;9.648;2023-04-09T07:32:50;20.07;;;11.27;;
18072;SDS011;9161;47.348;9.648;2023-04-09T07:37:53;18.00;;;11.30;;
18072;SDS011;9161;47.348;9.648;2023-04-09T07:43:05;17.53;;;11.27;;
18072;SDS011;9161;47.348;9.648;2023-04-09T07:48:09;17.00;;;10.67;;
18072;SDS011;9161;47.348;9.648;2023-04-09T07:53:11;19.20;;;11.07;;
18072;SDS011;9161;47.348;9.648;2023-04-09T07:58:14;18.67;;;11.40;;
18072;SDS011;9161;47.348;9.648;2023-04-09T08:03:18;18.63;;;11.13;;
18072;SDS011;9161;47.348;9.648;2023-04-09T08:08:21;18.63;;;11.63;;
18072;SDS011;9161;47.348;9.648;2023-04-09T08:13:22;16.77;;;11.00;;
18072;SDS011;9161;47.348;9.648;2023-04-09T08:18:26;19.17;;;11.07;;
18072;SDS011;9161;47.348;9.648;2023-04-09T08:23:29;15.37;;;10.00;;
18072;SDS011;9161;47.348;9.648;2023-04-09T08:28:31;16.83;;;10.87;;
18072;SDS011;9161;47.348;9.648;2023-04-09T08:33:35;13.97;;;9.73;;
18072;SDS011;9161;47.348;9.648;2023-04-09T08:38:37;13.77;;;9.33;;
18072;SDS011;9161;47.348;9.648;2023-04-09T08:43:40;13.63;;;9.50;;
18072;SDS011;9161;47.348;9.648;2023-04-09T08:48:58;13.60;;;9.27;;
18072;SDS011;9161;47.348;9.648;2023-04-09T08:54:01;12.47;;;8.47;;
18072;SDS011;9161;47.348;9.648;2023-04-09T08:59:04;12.10;;;8.33;;
18072;SDS011;9161;47.348;9.648;2023-04-09T09:04:10;12.00;;;7.97;;
18072;SDS011;9161;47.348;9.648;2023-04-09T09:09:13;10.57;;;7.78;;
18072;SDS011;9161;47.348;9.648;2023-04-09T09:14:17;10.15;;;7.70;;
18072;SDS011;9161;47.348;9.648;2023-04-09T09:19:29;9.40;;;7.18;;
18072;SDS011;9161;47.348;9.648;2023-04-09T09:24:32;9.02;;;7.07;;
18072;SDS011;9161;47.348;9.648;2023-04-09T09:29:35;11.02;;;7.70;;
18072;SDS011;9161;47.348;9.648;2023-04-09T09:34:46;10.32;;;7.32;;
18072;SDS011;9161;47.348;9.648;2023-04-09T09:40:00;10.32;;;7.65;;
18072;SDS011;9161;47.348;9.648;2023-04-09T09:45:04;9.57;;;7.43;;
18072;SDS011;9161;47.348;9.648;2023-04-09T09:50:21;9.07;;;7.63;;
18072;SDS011;9161;47.348;9.648;2023-04-09T09:55:29;9.40;;;7.50;;
18072;SDS011;9161;47.348;9.648;2023-04-09T10:00:32;10.57;;;8.23;;
18072;SDS011;9161;47.348;9.648;2023-04-09T10:05:40;9.05;;;7.15;;
18072;SDS011;9161;47.348;9.648;2023-04-09T10:10:43;10.15;;;7.97;;
18072;SDS011;9161;47.348;9.648;2023-04-09T10:15:49;8.85;;;7.28;;
18072;SDS011;9161;47.348;9.648;2023-04-09T10:20:55;10.23;;;8.25;;
18072;SDS011;9161;47.348;9.648;2023-04-09T10:26:00;9.35;;;7.35;;
18072;SDS011;9161;47.348;9.648;2023-04-09T10:31:03;8.70;;;7.20;;
18072;SDS011;9161;47.348;9.648;2023-04-09T10:36:10;8.73;;;7.63;;
18072;SDS011;9161;47.348;9.648;2023-04-09T10:41:14;9.05;;;7.85;;
18072;SDS011;9161;47.348;9.648;2023-04-09T10:46:25;9.63;;;8.23;;
18072;SDS011;9161;47.348;9.648;2023-04-09T10:51:34;8.40;;;7.43;;
18072;SDS011;9161;47.348;9.648;2023-04-09T10:56:38;9.02;;;7.72;;
18072;SDS011;9161;47.348;9.648;2023-04-09T11:01:40;8.95;;;7.32;;
18072;SDS011;9161;47.348;9.648;2023-04-09T11:06:55;8.52;;;7.22;;
18072;SDS011;9161;47.348;9.648;2023-04-09T11:11:58;9.05;;;7.28;;
18072;SDS011;9161;47.348;9.648;2023-04-09T11:17:01;7.90;;;6.70;;
18072;SDS011;9161;47.348;9.648;2023-04-09T11:22:05;6.45;;;5.85;;
18072;SDS011;9161;47.348;9.648;2023-04-09T11:27:07;7.88;;;6.72;;
18072;SDS011;9161;47.348;9.648;2023-04-09T11:32:09;7.05;;;6.35;;
18072;SDS011;9161;47.348;9.648;2023-04-09T11:37:15;7.55;;;6.70;;
18072;SDS011;9161;47.348;9.648;2023-04-09T11:42:18;7.10;;;6.40;;
18072;SDS011;9161;47.348;9.648;2023-04-09T11:47:21;6.80;;;5.68;;
18072;SDS011;9161;47.348;9.648;2023-04-09T11:52:25;6.10;;;5.40;;
18072;SDS011;9161;47.348;9.648;2023-04-09T11:57:37;5.57;;;5.00;;
18072;SDS011;9161;47.348;9.648;2023-04-09T12:02:42;5.28;;;4.78;;
18072;SDS011;9161;47.348;9.648;2023-04-09T12:07:48;5.40;;;4.63;;
18072;SDS011;9161;47.348;9.648;2023-04-09T12:12:59;4.95;;;4.40;;
18072;SDS011;9161;47.348;9.648;2023-04-09T12:18:02;5.55;;;4.57;;
18072;SDS011;9161;47.348;9.648;2023-04-09T12:23:10;4.18;;;3.78;;
18072;SDS011;9161;47.348;9.648;2023-04-09T12:28:13;5.80;;;3.63;;
18072;SDS011;9161;47.348;9.648;2023-04-09T12:33:17;4.50;;;4.00;;
18072;SDS011;9161;47.348;9.648;2023-04-09T12:38:21;5.60;;;3.60;;
18072;SDS011;9161;47.348;9.648;2023-04-09T12:43:23;3.90;;;3.22;;
18072;SDS011;9161;47.348;9.648;2023-04-09T12:48:26;4.70;;;4.10;;
18072;SDS011;9161;47.348;9.648;2023-04-09T12:53:29;5.97;;;3.80;;
18072;SDS011;9161;47.348;9.648;2023-04-09T12:58:32;3.70;;;3.38;;
18072;SDS011;9161;47.348;9.648;2023-04-09T13:03:34;4.05;;;3.42;;
18072;SDS011;9161;47.348;9.648;2023-04-09T13:08:38;4.22;;;3.40;;
18072;SDS011;9161;47.348;9.648;2023-04-09T13:13:40;3.72;;;3.35;;
18072;SDS011;9161;47.348;9.648;2023-04-09T13:18:42;4.25;;;2.75;;
18072;SDS011;9161;47.348;9.648;2023-04-09T13:23:47;4.03;;;3.13;;
18072;SDS011;9161;47.348;9.648;2023-04-09T13:28:49;4.45;;;2.83;;
18072;SDS011;9161;47.348;9.648;2023-04-09T13:33:53;4.03;;;3.63;;
18072;SDS011;9161;47.348;9.648;2023-04-09T13:38:58;3.78;;;3.08;;
18072;SDS011;9161;47.348;9.648;2023-04-09T13:44:05;3.67;;;3.08;;
18072;SDS011;9161;47.348;9.648;2023-04-09T13:49:10;2.90;;;2.20;;
18072;SDS011;9161;47.348;9.648;2023-04-09T13:54:15;3.70;;;3.30;;
18072;SDS011;9161;47.348;9.648;2023-04-09T13:59:18;3.08;;;2.55;;
18072;SDS011;9161;47.348;9.648;2023-04-09T14:04:21;3.28;;;2.83;;
18072;SDS011;9161;47.348;9.648;2023-04-09T14:09:24;2.80;;;2.20;;
18072;SDS011;9161;47.348;9.648;2023-04-09T14:14:27;3.00;;;2.45;;
18072;SDS011;9161;47.348;9.648;2023-04-09T14:19:29;8.00;;;5.75;;
18072;SDS011;9161;47.348;9.648;2023-04-09T14:24:33;3.97;;;2.10;;
18072;SDS011;9161;47.348;9.648;2023-04-09T14:29:39;2.70;;;2.10;;
18072;SDS011;9161;47.348;9.648;2023-04-09T14:34:41;3.97;;;2.40;;
18072;SDS011;9161;47.348;9.648;2023-04-09T14:39:45;2.67;;;2.08;;
18072;SDS011;9161;47.348;9.648;2023-04-09T14:44:47;2.50;;;2.15;;
18072;SDS011;9161;47.348;9.648;2023-04-09T14:49:50;1.92;;;1.70;;
18072;SDS011;9161;47.348;9.648;2023-04-09T14:54:53;2.30;;;1.90;;
18072;SDS011;9161;47.348;9.648;2023-04-09T14:59:56;2.08;;;1.88;;
18072;SDS011;9161;47.348;9.648;2023-04-09T15:04:58;1.98;;;1.75;;
18072;SDS011;9161;47.348;9.648;2023-04-09T15:10:02;2.05;;;1.67;;
18072;SDS011;9161;47.348;9.648;2023-04-09T15:15:06;3.30;;;1.73;;
18072;SDS011;9161;47.348;9.648;2023-04-09T15:20:09;2.65;;;1.77;;
18072;SDS011;9161;47.348;9.648;2023-04-09T15:25:14;2.17;;;1.90;;
18072;SDS011;9161;47.348;9.648;2023-04-09T15:30:16;2.33;;;1.60;;
18072;SDS011;9161;47.348;9.648;2023-04-09T15:35:19;1.65;;;1.48;;
18072;SDS011;9161;47.348;9.648;2023-04-09T15:40:25;1.30;;;1.20;;
18072;SDS011;9161;47.348;9.648;2023-04-09T15:45:31;3.25;;;1.48;;
18072;SDS011;9161;47.348;9.648;2023-04-09T15:50:34;2.08;;;1.30;;
18072;SDS011;9161;47.348;9.648;2023-04-09T15:55:37;2.70;;;1.40;;
18072;SDS011;9161;47.348;9.648;2023-04-09T16:00:39;1.35;;;1.10;;
18072;SDS011;9161;47.348;9.648;2023-04-09T16:05:42;1.70;;;1.05;;
18072;SDS011;9161;47.348;9.648;2023-04-09T16:10:46;13.77;;;1.60;;
18072;SDS011;9161;47.348;9.648;2023-04-09T16:15:48;2.15;;;1.20;;
18072;SDS011;9161;47.348;9.648;2023-04-09T16:20:51;11.23;;;1.58;;
18072;SDS011;9161;47.348;9.648;2023-04-09T16:25:55;1.73;;;1.20;;
18072;SDS011;9161;47.348;9.648;2023-04-09T16:30:57;1.55;;;1.13;;
18072;SDS011;9161;47.348;9.648;2023-04-09T16:36:00;1.77;;;1.17;;
18072;SDS011;9161;47.348;9.648;2023-04-09T16:41:04;1.60;;;1.08;;
18072;SDS011;9161;47.348;9.648;2023-04-09T16:46:06;1.63;;;1.20;;
18072;SDS011;9161;47.348;9.648;2023-04-09T16:51:10;2.15;;;1.13;;
18072;SDS011;9161;47.348;9.648;2023-04-09T16:56:13;1.98;;;1.45;;
18072;SDS011;9161;47.348;9.648;2023-04-09T17:01:16;2.88;;;1.30;;
18072;SDS011;9161;47.348;9.648;2023-04-09T17:06:18;2.75;;;1.20;;
18072;SDS011;9161;47.348;9.648;2023-04-09T17:11:22;1.15;;;0.98;;
18072;SDS011;9161;47.348;9.648;2023-04-09T17:16:24;2.38;;;1.40;;
18072;SDS011;9161;47.348;9.648;2023-04-09T17:21:27;2.50;;;1.05;;
18072;SDS011;9161;47.348;9.648;2023-04-09T17:26:30;1.65;;;1.30;;
18072;SDS011;9161;47.348;9.648;2023-04-09T17:31:33;2.93;;;1.40;;
18072;SDS011;9161;47.348;9.648;2023-04-09T17:36:35;1.27;;;1.10;;
18072;SDS011;9161;47.348;9.648;2023-04-09T17:41:39;2.33;;;1.40;;
18072;SDS011;9161;47.348;9.648;2023-04-09T17:46:43;1.87;;;1.33;;
18072;SDS011;9161;47.348;9.648;2023-04-09T17:51:45;2.53;;;1.50;;
18072;SDS011;9161;47.348;9.648;2023-04-09T17:56:49;3.10;;;1.87;;
18072;SDS011;9161;47.348;9.648;2023-04-09T18:01:52;4.23;;;1.73;;
18072;SDS011;9161;47.348;9.648;2023-04-09T18:06:56;2.70;;;1.70;;
18072;SDS011;9161;47.348;9.648;2023-04-09T18:11:59;3.60;;;1.77;;
18072;SDS011;9161;47.348;9.648;2023-04-09T18:17:02;3.90;;;1.87;;
18072;SDS011;9161;47.348;9.648;2023-04-09T18:22:04;2.97;;;2.00;;
18072;SDS011;9161;47.348;9.648;2023-04-09T18:27:08;5.73;;;2.40;;
18072;SDS011;9161;47.348;9.648;2023-04-09T18:32:11;3.87;;;2.23;;
18072;SDS011;9161;47.348;9.648;2023-04-09T18:37:14;5.17;;;3.20;;
18072;SDS011;9161;47.348;9.648;2023-04-09T18:42:18;3.37;;;2.40;;
18072;SDS011;9161;47.348;9.648;2023-04-09T18:47:20;4.30;;;2.67;;
18072;SDS011;9161;47.348;9.648;2023-04-09T18:52:23;4.37;;;2.90;;
18072;SDS011;9161;47.348;9.648;2023-04-09T18:57:27;4.87;;;2.50;;
18072;SDS011;9161;47.348;9.648;2023-04-09T19:02:29;5.00;;;2.87;;
18072;SDS011;9161;47.348;9.648;2023-04-09T19:07:32;3.47;;;2.67;;
18072;SDS011;9161;47.348;9.648;2023-04-09T19:12:37;5.80;;;3.60;;
18072;SDS011;9161;47.348;9.648;2023-04-09T19:17:45;8.27;;;4.10;;
18072;SDS011;9161;47.348;9.648;2023-04-09T19:22:48;9.70;;;4.83;;
18072;SDS011;9161;47.348;9.648;2023-04-09T19:27:56;8.60;;;5.10;;
18072;SDS011;9161;47.348;9.648;2023-04-09T19:32:59;8.33;;;4.47;;
18072;SDS011;9161;47.348;9.648;2023-04-09T19:38:01;5.83;;;3.23;;
18072;SDS011;9161;47.348;9.648;2023-04-09T19:43:05;6.33;;;3.73;;
18072;SDS011;9161;47.348;9.648;2023-04-09T19:48:08;9.97;;;5.00;;
18072;SDS011;9161;47.348;9.648;2023-04-09T19:53:10;6.67;;;4.40;;
18072;SDS011;9161;47.348;9.648;2023-04-09T19:58:22;6.93;;;3.60;;
18072;SDS011;9161;47.348;9.648;2023-04-09T20:03:34;7.93;;;4.80;;
18072;SDS011;9161;47.348;9.648;2023-04-09T20:08:36;7.70;;;4.03;;
18072;SDS011;9161;47.348;9.648;2023-04-09T20:13:40;9.77;;;4.27;;
18072;SDS011;9161;47.348;9.648;2023-04-09T20:18:42;6.67;;;3.97;;
18072;SDS011;9161;47.348;9.648;2023-04-09T20:23:44;5.87;;;3.60;;
18072;SDS011;9161;47.348;9.648;2023-04-09T20:28:48;5.97;;;3.30;;
18072;SDS011;9161;47.348;9.648;2023-04-09T20:33:51;11.47;;;4.10;;
18072;SDS011;9161;47.348;9.648;2023-04-09T20:38:53;8.73;;;4.60;;
18072;SDS011;9161;47.348;9.648;2023-04-09T20:43:58;5.57;;;3.43;;
18072;SDS011;9161;47.348;9.648;2023-04-09T20:49:05;6.00;;;2.50;;
18072;SDS011;9161;47.348;9.648;2023-04-09T20:54:49;4.57;;;2.33;;
18072;SDS011;9161;47.348;9.648;2023-04-09T21:00:08;3.83;;;2.00;;
18072;SDS011;9161;47.348;9.648;2023-04-09T21:05:29;5.17;;;2.53;;
18072;SDS011;9161;47.348;9.648;2023-04-09T21:10:32;4.57;;;2.60;;
18072;SDS011;9161;47.348;9.648;2023-04-09T21:15:37;4.23;;;1.93;;
18072;SDS011;9161;47.348;9.648;2023-04-09T21:20:41;5.40;;;2.70;;
18072;SDS011;9161;47.348;9.648;2023-04-09T21:25:44;4.77;;;2.63;;
18072;SDS011;9161;47.348;9.648;2023-04-09T21:30:48;4.07;;;2.37;;
18072;SDS011;9161;47.348;9.648;2023-04-09T21:35:51;3.83;;;2.77;;
18072;SDS011;9161;47.348;9.648;2023-04-09T21:40:54;5.87;;;2.60;;
18072;SDS011;9161;47.348;9.648;2023-04-09T21:45:57;5.77;;;2.70;;
18072;SDS011;9161;47.348;9.648;2023-04-09T21:51:00;8.47;;;3.77;;
18072;SDS011;9161;47.348;9.648;2023-04-09T21:56:03;6.87;;;3.67;;
18072;SDS011;9161;47.348;9.648;2023-04-09T22:01:07;5.97;;;3.10;;
18072;SDS011;9161;47.348;9.648;2023-04-09T22:06:27;6.67;;;3.27;;
18072;SDS011;9161;47.348;9.648;2023-04-09T22:11:30;7.33;;;4.03;;
18072;SDS011;9161;47.348;9.648;2023-04-09T22:16:35;6.73;;;2.73;;
18072;SDS011;9161;47.348;9.648;2023-04-09T22:21:37;6.63;;;3.20;;
18072;SDS011;9161;47.348;9.648;2023-04-09T22:26:40;5.10;;;2.97;;
18072;SDS011;9161;47.348;9.648;2023-04-09T22:31:47;6.60;;;3.13;;
18072;SDS011;9161;47.348;9.648;2023-04-09T22:36:50;4.90;;;2.93;;
18072;SDS011;9161;47.348;9.648;2023-04-09T22:41:53;5.03;;;2.70;;
18072;SDS011;9161;47.348;9.648;2023-04-09T22:46:56;5.63;;;2.73;;
18072;SDS011;9161;47.348;9.648;2023-04-09T22:51:59;6.60;;;2.30;;
18072;SDS011;9161;47.348;9.648;2023-04-09T22:57:01;5.53;;;2.90;;
18072;SDS011;9161;47.348;9.648;2023-04-09T23:02:05;5.43;;;2.90;;
18072;SDS011;9161;47.348;9.648;2023-04-09T23:07:08;6.30;;;3.40;;
18072;SDS011;9161;47.348;9.648;2023-04-09T23:12:10;8.07;;;3.60;;
18072;SDS011;9161;47.348;9.648;2023-04-09T23:17:13;6.43;;;3.20;;
18072;SDS011;9161;47.348;9.648;2023-04-09T23:22:16;6.53;;;3.50;;
18072;SDS011;9161;47.348;9.648;2023-04-09T23:27:18;6.00;;;3.10;;
18072;SDS011;9161;47.348;9.648;2023-04-09T23:32:29;18.53;;;5.87;;
18072;SDS011;9161;47.348;9.648;2023-04-09T23:37:31;35.70;;;9.20;;
18072;SDS011;9161;47.348;9.648;2023-04-09T23:42:34;9.73;;;4.13;;
18072;SDS011;9161;47.348;9.648;2023-04-09T23:47:37;10.20;;;4.30;;
18072;SDS011;9161;47.348;9.648;2023-04-09T23:52:44;12.47;;;4.80;;
18072;SDS011;9161;47.348;9.648;2023-04-09T23:57:47;8.70;;;4.13;;
